sensor_id;sensor_type;location;lat;lon;timestamp;pressure;altitude;pressure_sealevel;temperature;humidity
12785;BME280;6456;42.680;23.260;2023-12-20T00:02:22;94905.88;;;1.46;100.00
12785;BME280;6456;42.680;23.260;2023-12-20T00:04:52;94976.44;;;1.93;100.00
12785;BME280;6456;42.680;23.260;2023-12-20T00:07:22;94979.66;;;1.87;100.00
12785;BME280;6456;42.680;23.260;2023-12-20T00:09:51;94956.16;;;1.71;100.00
12785;BME280;6456;42.680;23.260;2023-12-20T00:12:18;95009.00;;;2.05;100.00
12785;BME280;6456;42.680;23.260;2023-12-20T00:14:45;95020.31;;;2.04;100.00
12785;BME280;6456;42.680;23.260;2023-12-20T00:17:14;95031.78;;;2.19;100.00
12785;BME280;6456;42.680;23.260;2023-12-20T00:19:41;94954.47;;;1.62;100.00
12785;BME280;6456;42.680;23.260;2023-12-20T00:22:08;95032.91;;;2.17;100.00
12785;BME280;6456;42.680;23.260;2023-12-20T00:24:37;94983.06;;;1.87;100.00
12785;BME280;6456;42.680;23.260;2023-12-20T00:27:14;94966.97;;;1.84;100.00
12785;BME280;6456;42.680;23.260;2023-12-20T00:29:41;94997.25;;;2.01;100.00
12785;BME280;6456;42.680;23.260;2023-12-20T00:32:15;94942.41;;;1.70;100.00
12785;BME280;6456;42.680;23.260;2023-12-20T00:34:43;94910.63;;;1.51;100.00
12785;BME280;6456;42.680;23.260;2023-12-20T00:37:10;94982.09;;;1.88;100.00
12785;BME280;6456;42.680;23.260;2023-12-20T00:39:37;94991.56;;;1.98;100.00
12785;BME280;6456;42.680;23.260;2023-12-20T00:42:04;94959.50;;;1.81;100.00
12785;BME280;6456;42.680;23.260;2023-12-20T00:44:36;94926.19;;;1.51;100.00
12785;BME280;6456;42.680;23.260;2023-12-20T00:47:05;94921.81;;;1.51;100.00
12785;BME280;6456;42.680;23.260;2023-12-20T00:49:35;94996.78;;;1.98;100.00
12785;BME280;6456;42.680;23.260;2023-12-20T00:52:04;94969.47;;;1.68;100.00
12785;BME280;6456;42.680;23.260;2023-12-20T00:54:34;94922.44;;;1.45;100.00
12785;BME280;6456;42.680;23.260;2023-12-20T00:57:05;94961.59;;;1.60;100.00
12785;BME280;6456;42.680;23.260;2023-12-20T00:59:32;94943.44;;;1.60;100.00
12785;BME280;6456;42.680;23.260;2023-12-20T01:02:00;94884.44;;;1.18;100.00
12785;BME280;6456;42.680;23.260;2023-12-20T01:04:29;94877.28;;;1.12;100.00
12785;BME280;6456;42.680;23.260;2023-12-20T01:07:02;94893.59;;;1.30;100.00
12785;BME280;6456;42.680;23.260;2023-12-20T01:09:29;94948.19;;;1.64;100.00
12785;BME280;6456;42.680;23.260;2023-12-20T01:11:56;94914.50;;;1.47;100.00
12785;BME280;6456;42.680;23.260;2023-12-20T01:14:26;94954.09;;;1.74;100.00
12785;BME280;6456;42.680;23.260;2023-12-20T01:16:53;94958.31;;;1.75;100.00
12785;BME280;6456;42.680;23.260;2023-12-20T01:19:22;94953.44;;;1.72;100.00
12785;BME280;6456;42.680;23.260;2023-12-20T01:21:49;94957.50;;;1.75;100.00
12785;BME280;6456;42.680;23.260;2023-12-20T01:24:16;94956.53;;;1.76;100.00
12785;BME280;6456;42.680;23.260;2023-12-20T01:26:43;94943.84;;;1.73;100.00
12785;BME280;6456;42.680;23.260;2023-12-20T01:29:10;94922.59;;;1.69;100.00
12785;BME280;6456;42.680;23.260;2023-12-20T01:31:38;94907.44;;;1.57;100.00
12785;BME280;6456;42.680;23.260;2023-12-20T01:34:06;94944.28;;;1.86;100.00
12785;BME280;6456;42.680;23.260;2023-12-20T01:36:37;94918.84;;;1.64;100.00
12785;BME280;6456;42.680;23.260;2023-12-20T01:39:05;94941.19;;;1.82;100.00
12785;BME280;6456;42.680;23.260;2023-12-20T01:41:33;94932.78;;;1.88;100.00
12785;BME280;6456;42.680;23.260;2023-12-20T01:44:03;94928.56;;;1.87;100.00
12785;BME280;6456;42.680;23.260;2023-12-20T01:46:30;94880.03;;;1.54;100.00
12785;BME280;6456;42.680;23.260;2023-12-20T01:48:58;94880.84;;;1.55;100.00
12785;BME280;6456;42.680;23.260;2023-12-20T01:51:25;94895.13;;;1.59;100.00
12785;BME280;6456;42.680;23.260;2023-12-20T01:53:57;94881.69;;;1.63;100.00
12785;BME280;6456;42.680;23.260;2023-12-20T01:56:25;94883.50;;;1.63;100.00
12785;BME280;6456;42.680;23.260;2023-12-20T01:58:54;94862.63;;;1.47;100.00
12785;BME280;6456;42.680;23.260;2023-12-20T02:01:22;94914.44;;;1.82;100.00
12785;BME280;6456;42.680;23.260;2023-12-20T02:03:50;94913.72;;;1.72;100.00
12785;BME280;6456;42.680;23.260;2023-12-20T02:06:18;94881.44;;;1.49;100.00
12785;BME280;6456;42.680;23.260;2023-12-20T02:08:48;94826.09;;;1.14;100.00
12785;BME280;6456;42.680;23.260;2023-12-20T02:11:18;94797.25;;;0.92;100.00
12785;BME280;6456;42.680;23.260;2023-12-20T02:13:45;94898.75;;;1.66;100.00
12785;BME280;6456;42.680;23.260;2023-12-20T02:16:12;94806.94;;;1.07;100.00
12785;BME280;6456;42.680;23.260;2023-12-20T02:18:39;94818.31;;;1.14;100.00
12785;BME280;6456;42.680;23.260;2023-12-20T02:21:07;94868.94;;;1.44;100.00
12785;BME280;6456;42.680;23.260;2023-12-20T02:23:34;94911.88;;;1.64;100.00
12785;BME280;6456;42.680;23.260;2023-12-20T02:26:01;94805.13;;;1.08;100.00
12785;BME280;6456;42.680;23.260;2023-12-20T02:28:29;94805.22;;;1.16;100.00
12785;BME280;6456;42.680;23.260;2023-12-20T02:30:57;94836.81;;;1.37;100.00
12785;BME280;6456;42.680;23.260;2023-12-20T02:33:24;94773.03;;;1.01;100.00
12785;BME280;6456;42.680;23.260;2023-12-20T02:35:51;94793.00;;;1.08;100.00
12785;BME280;6456;42.680;23.260;2023-12-20T02:38:19;94867.53;;;1.50;100.00
12785;BME280;6456;42.680;23.260;2023-12-20T02:40:48;94789.22;;;1.03;100.00
12785;BME280;6456;42.680;23.260;2023-12-20T02:43:15;94815.28;;;1.19;100.00
12785;BME280;6456;42.680;23.260;2023-12-20T02:45:42;94859.38;;;1.45;100.00
12785;BME280;6456;42.680;23.260;2023-12-20T02:48:09;94810.25;;;1.17;100.00
12785;BME280;6456;42.680;23.260;2023-12-20T02:50:35;94862.94;;;1.44;100.00
12785;BME280;6456;42.680;23.260;2023-12-20T02:53:03;94755.38;;;0.79;100.00
12785;BME280;6456;42.680;23.260;2023-12-20T02:55:30;94867.53;;;1.50;100.00
12785;BME280;6456;42.680;23.260;2023-12-20T02:57:59;94814.81;;;1.23;100.00
12785;BME280;6456;42.680;23.260;2023-12-20T03:00:26;94819.66;;;1.18;100.00
12785;BME280;6456;42.680;23.260;2023-12-20T03:02:53;94806.56;;;1.02;100.00
12785;BME280;6456;42.680;23.260;2023-12-20T03:05:20;94822.59;;;1.23;100.00
12785;BME280;6456;42.680;23.260;2023-12-20T03:07:46;94753.06;;;0.76;100.00
12785;BME280;6456;42.680;23.260;2023-12-20T03:10:13;94777.03;;;0.95;100.00
12785;BME280;6456;42.680;23.260;2023-12-20T03:12:40;94825.81;;;1.17;100.00
12785;BME280;6456;42.680;23.260;2023-12-20T03:15:11;94856.44;;;1.40;100.00
12785;BME280;6456;42.680;23.260;2023-12-20T03:17:39;94853.97;;;1.38;100.00
12785;BME280;6456;42.680;23.260;2023-12-20T03:20:07;94832.59;;;1.18;100.00
12785;BME280;6456;42.680;23.260;2023-12-20T03:22:34;94788.66;;;0.91;100.00
12785;BME280;6456;42.680;23.260;2023-12-20T03:25:02;94860.59;;;1.33;100.00
12785;BME280;6456;42.680;23.260;2023-12-20T03:27:29;94811.75;;;1.02;100.00
12785;BME280;6456;42.680;23.260;2023-12-20T03:29:56;94851.34;;;1.30;100.00
12785;BME280;6456;42.680;23.260;2023-12-20T03:32:43;94845.91;;;1.23;100.00
12785;BME280;6456;42.680;23.260;2023-12-20T03:35:12;94821.50;;;1.08;100.00
12785;BME280;6456;42.680;23.260;2023-12-20T03:37:38;94832.41;;;1.12;100.00
12785;BME280;6456;42.680;23.260;2023-12-20T03:40:06;94804.50;;;0.88;100.00
12785;BME280;6456;42.680;23.260;2023-12-20T03:42:33;94837.34;;;1.05;100.00
12785;BME280;6456;42.680;23.260;2023-12-20T03:45:01;94815.09;;;0.77;100.00
12785;BME280;6456;42.680;23.260;2023-12-20T03:47:28;94806.81;;;0.74;100.00
12785;BME280;6456;42.680;23.260;2023-12-20T03:49:56;94761.75;;;0.49;100.00
12785;BME280;6456;42.680;23.260;2023-12-20T03:52:23;94804.38;;;0.72;100.00
12785;BME280;6456;42.680;23.260;2023-12-20T03:54:50;94836.94;;;0.92;100.00
12785;BME280;6456;42.680;23.260;2023-12-20T03:57:17;94838.78;;;1.00;100.00
12785;BME280;6456;42.680;23.260;2023-12-20T03:59:44;94817.31;;;0.90;100.00
12785;BME280;6456;42.680;23.260;2023-12-20T04:02:12;94826.94;;;0.97;100.00
12785;BME280;6456;42.680;23.260;2023-12-20T04:04:39;94751.84;;;0.44;100.00
12785;BME280;6456;42.680;23.260;2023-12-20T04:07:08;94820.66;;;0.82;100.00
12785;BME280;6456;42.680;23.260;2023-12-20T04:09:35;94813.84;;;0.81;100.00
12785;BME280;6456;42.680;23.260;2023-12-20T04:12:02;94794.53;;;0.76;100.00
12785;BME280;6456;42.680;23.260;2023-12-20T04:14:30;94809.03;;;0.86;100.00
12785;BME280;6456;42.680;23.260;2023-12-20T04:16:57;94796.97;;;0.77;100.00
12785;BME280;6456;42.680;23.260;2023-12-20T04:19:24;94778.13;;;0.67;100.00
12785;BME280;6456;42.680;23.260;2023-12-20T04:21:51;94814.19;;;0.86;100.00
12785;BME280;6456;42.680;23.260;2023-12-20T04:24:20;94654.53;;;-0.02;100.00
12785;BME280;6456;42.680;23.260;2023-12-20T04:26:47;94791.50;;;0.80;100.00
12785;BME280;6456;42.680;23.260;2023-12-20T04:29:14;94820.38;;;0.85;100.00
12785;BME280;6456;42.680;23.260;2023-12-20T04:31:41;94785.28;;;0.73;100.00
12785;BME280;6456;42.680;23.260;2023-12-20T04:34:09;94795.34;;;0.76;100.00
12785;BME280;6456;42.680;23.260;2023-12-20T04:36:36;94740.59;;;0.36;100.00
12785;BME280;6456;42.680;23.260;2023-12-20T04:39:03;94706.66;;;0.21;100.00
12785;BME280;6456;42.680;23.260;2023-12-20T04:41:31;94792.66;;;0.68;100.00
12785;BME280;6456;42.680;23.260;2023-12-20T04:43:58;94747.50;;;0.27;100.00
12785;BME280;6456;42.680;23.260;2023-12-20T04:46:26;94773.06;;;0.48;100.00
12785;BME280;6456;42.680;23.260;2023-12-20T04:48:53;94789.22;;;0.59;100.00
12785;BME280;6456;42.680;23.260;2023-12-20T04:51:20;94745.13;;;0.34;100.00
12785;BME280;6456;42.680;23.260;2023-12-20T04:53:48;94797.81;;;0.60;100.00
12785;BME280;6456;42.680;23.260;2023-12-20T04:56:15;94687.72;;;-0.15;100.00
12785;BME280;6456;42.680;23.260;2023-12-20T04:58:43;94695.78;;;-0.18;100.00
12785;BME280;6456;42.680;23.260;2023-12-20T05:01:11;94780.63;;;0.41;100.00
12785;BME280;6456;42.680;23.260;2023-12-20T05:03:38;94718.25;;;-0.01;100.00
12785;BME280;6456;42.680;23.260;2023-12-20T05:06:05;94782.63;;;0.47;100.00
12785;BME280;6456;42.680;23.260;2023-12-20T05:08:32;94776.63;;;0.47;100.00
12785;BME280;6456;42.680;23.260;2023-12-20T05:11:00;94730.53;;;0.15;100.00
12785;BME280;6456;42.680;23.260;2023-12-20T05:13:30;94746.22;;;0.31;100.00
12785;BME280;6456;42.680;23.260;2023-12-20T05:15:58;94747.25;;;0.21;100.00
12785;BME280;6456;42.680;23.260;2023-12-20T05:18:25;94770.09;;;0.43;100.00
12785;BME280;6456;42.680;23.260;2023-12-20T05:20:52;94774.34;;;0.44;100.00
12785;BME280;6456;42.680;23.260;2023-12-20T05:23:20;94677.00;;;-0.20;100.00
12785;BME280;6456;42.680;23.260;2023-12-20T05:25:47;94741.31;;;0.11;100.00
12785;BME280;6456;42.680;23.260;2023-12-20T05:28:15;94678.09;;;-0.22;100.00
12785;BME280;6456;42.680;23.260;2023-12-20T05:30:42;94754.56;;;0.25;100.00
12785;BME280;6456;42.680;23.260;2023-12-20T05:33:11;94721.81;;;-0.02;100.00
12785;BME280;6456;42.680;23.260;2023-12-20T05:35:39;94729.94;;;0.04;100.00
12785;BME280;6456;42.680;23.260;2023-12-20T05:38:06;94625.84;;;-0.61;100.00
12785;BME280;6456;42.680;23.260;2023-12-20T05:40:33;94749.38;;;0.25;100.00
12785;BME280;6456;42.680;23.260;2023-12-20T05:43:00;94729.50;;;0.08;100.00
12785;BME280;6456;42.680;23.260;2023-12-20T05:45:27;94736.31;;;0.09;100.00
12785;BME280;6456;42.680;23.260;2023-12-20T05:47:55;94672.31;;;-0.34;100.00
12785;BME280;6456;42.680;23.260;2023-12-20T05:50:23;94717.94;;;0.03;100.00
12785;BME280;6456;42.680;23.260;2023-12-20T05:52:50;94660.06;;;-0.32;100.00
12785;BME280;6456;42.680;23.260;2023-12-20T05:55:17;94738.25;;;0.25;100.00
12785;BME280;6456;42.680;23.260;2023-12-20T05:57:44;94689.53;;;-0.25;100.00
12785;BME280;6456;42.680;23.260;2023-12-20T06:00:14;94660.16;;;-0.24;100.00
12785;BME280;6456;42.680;23.260;2023-12-20T06:02:41;94742.88;;;0.21;100.00
12785;BME280;6456;42.680;23.260;2023-12-20T06:05:08;94648.91;;;-0.32;100.00
12785;BME280;6456;42.680;23.260;2023-12-20T06:07:36;94706.94;;;0.18;100.00
12785;BME280;6456;42.680;23.260;2023-12-20T06:10:04;94724.63;;;0.23;100.00
12785;BME280;6456;42.680;23.260;2023-12-20T06:12:31;94709.97;;;0.14;100.00
12785;BME280;6456;42.680;23.260;2023-12-20T06:15:01;94741.13;;;0.39;100.00
12785;BME280;6456;42.680;23.260;2023-12-20T06:17:28;94649.53;;;-0.21;100.00
12785;BME280;6456;42.680;23.260;2023-12-20T06:19:57;94738.16;;;0.34;100.00
12785;BME280;6456;42.680;23.260;2023-12-20T06:22:23;94721.25;;;0.22;100.00
12785;BME280;6456;42.680;23.260;2023-12-20T06:24:52;94651.44;;;-0.23;100.00
12785;BME280;6456;42.680;23.260;2023-12-20T06:27:19;94667.34;;;0.00;100.00
12785;BME280;6456;42.680;23.260;2023-12-20T06:29:46;94747.91;;;0.58;100.00
12785;BME280;6456;42.680;23.260;2023-12-20T06:32:13;94655.06;;;0.02;100.00
12785;BME280;6456;42.680;23.260;2023-12-20T06:34:40;94675.16;;;0.08;100.00
12785;BME280;6456;42.680;23.260;2023-12-20T06:37:07;94657.00;;;0.00;100.00
12785;BME280;6456;42.680;23.260;2023-12-20T06:39:34;94751.41;;;0.49;100.00
12785;BME280;6456;42.680;23.260;2023-12-20T06:42:03;94716.66;;;0.34;100.00
12785;BME280;6456;42.680;23.260;2023-12-20T06:44:31;94671.47;;;-0.07;100.00
12785;BME280;6456;42.680;23.260;2023-12-20T06:47:05;94655.81;;;-0.23;100.00
12785;BME280;6456;42.680;23.260;2023-12-20T06:49:34;94677.69;;;0.00;100.00
12785;BME280;6456;42.680;23.260;2023-12-20T06:52:01;94635.41;;;-0.26;100.00
12785;BME280;6456;42.680;23.260;2023-12-20T06:54:28;94664.69;;;-0.08;100.00
12785;BME280;6456;42.680;23.260;2023-12-20T06:56:55;94684.19;;;0.22;100.00
12785;BME280;6456;42.680;23.260;2023-12-20T06:59:23;94702.97;;;0.41;100.00
12785;BME280;6456;42.680;23.260;2023-12-20T07:01:50;94707.75;;;0.54;100.00
12785;BME280;6456;42.680;23.260;2023-12-20T07:04:17;94682.06;;;0.35;100.00
12785;BME280;6456;42.680;23.260;2023-12-20T07:06:47;94621.81;;;0.07;100.00
12785;BME280;6456;42.680;23.260;2023-12-20T07:09:16;94690.47;;;0.54;100.00
12785;BME280;6456;42.680;23.260;2023-12-20T07:11:43;94554.50;;;-0.19;100.00
12785;BME280;6456;42.680;23.260;2023-12-20T07:14:11;94667.97;;;0.55;100.00
12785;BME280;6456;42.680;23.260;2023-12-20T07:16:39;94620.91;;;0.16;100.00
12785;BME280;6456;42.680;23.260;2023-12-20T07:19:06;94683.50;;;0.55;100.00
12785;BME280;6456;42.680;23.260;2023-12-20T07:21:33;94654.59;;;0.42;100.00
12785;BME280;6456;42.680;23.260;2023-12-20T07:24:00;94701.69;;;0.89;100.00
12785;BME280;6456;42.680;23.260;2023-12-20T07:26:28;94679.44;;;0.78;100.00
12785;BME280;6456;42.680;23.260;2023-12-20T07:28:54;94686.69;;;0.92;100.00
12785;BME280;6456;42.680;23.260;2023-12-20T07:31:22;94690.75;;;1.03;100.00
12785;BME280;6456;42.680;23.260;2023-12-20T07:33:51;94641.56;;;0.77;100.00
12785;BME280;6456;42.680;23.260;2023-12-20T07:36:19;94634.75;;;0.76;100.00
12785;BME280;6456;42.680;23.260;2023-12-20T07:38:47;94698.13;;;1.15;100.00
12785;BME280;6456;42.680;23.260;2023-12-20T07:41:14;94606.78;;;0.54;100.00
12785;BME280;6456;42.680;23.260;2023-12-20T07:43:41;94694.88;;;1.13;100.00
12785;BME280;6456;42.680;23.260;2023-12-20T07:46:08;94675.38;;;1.01;100.00
12785;BME280;6456;42.680;23.260;2023-12-20T07:48:35;94692.28;;;1.13;100.00
12785;BME280;6456;42.680;23.260;2023-12-20T07:51:04;94697.34;;;1.15;100.00
12785;BME280;6456;42.680;23.260;2023-12-20T07:53:34;94697.38;;;1.23;100.00
12785;BME280;6456;42.680;23.260;2023-12-20T07:56:01;94685.56;;;1.28;100.00
12785;BME280;6456;42.680;23.260;2023-12-20T07:58:28;94699.53;;;1.36;100.00
12785;BME280;6456;42.680;23.260;2023-12-20T08:00:55;94683.69;;;1.39;100.00
12785;BME280;6456;42.680;23.260;2023-12-20T08:03:22;94632.34;;;1.08;100.00
12785;BME280;6456;42.680;23.260;2023-12-20T08:05:49;94679.16;;;1.41;100.00
12785;BME280;6456;42.680;23.260;2023-12-20T08:08:18;94677.88;;;1.45;100.00
12785;BME280;6456;42.680;23.260;2023-12-20T08:10:45;94687.63;;;1.51;100.00
12785;BME280;6456;42.680;23.260;2023-12-20T08:13:12;94666.25;;;1.57;100.00
12785;BME280;6456;42.680;23.260;2023-12-20T08:15:40;94639.00;;;1.45;100.00
12785;BME280;6456;42.680;23.260;2023-12-20T08:18:07;94650.56;;;1.66;100.00
12785;BME280;6456;42.680;23.260;2023-12-20T08:20:34;94636.28;;;1.62;100.00
12785;BME280;6456;42.680;23.260;2023-12-20T08:23:01;94613.56;;;1.56;100.00
12785;BME280;6456;42.680;23.260;2023-12-20T08:25:30;94585.16;;;1.39;100.00
12785;BME280;6456;42.680;23.260;2023-12-20T08:27:57;94623.47;;;1.61;100.00
12785;BME280;6456;42.680;23.260;2023-12-20T08:30:24;94590.84;;;1.42;100.00
12785;BME280;6456;42.680;23.260;2023-12-20T08:32:51;94621.53;;;1.55;100.00
12785;BME280;6456;42.680;23.260;2023-12-20T08:35:18;94628.31;;;1.48;100.00
12785;BME280;6456;42.680;23.260;2023-12-20T08:37:45;94648.44;;;1.62;100.00
12785;BME280;6456;42.680;23.260;2023-12-20T08:40:12;94640.63;;;1.54;100.00
12785;BME280;6456;42.680;23.260;2023-12-20T08:42:40;94568.56;;;1.15;100.00
12785;BME280;6456;42.680;23.260;2023-12-20T08:45:08;94579.97;;;1.39;100.00
12785;BME280;6456;42.680;23.260;2023-12-20T08:47:35;94552.41;;;1.29;100.00
12785;BME280;6456;42.680;23.260;2023-12-20T08:50:02;94581.97;;;1.53;100.00
12785;BME280;6456;42.680;23.260;2023-12-20T08:52:29;94635.69;;;1.84;100.00
12785;BME280;6456;42.680;23.260;2023-12-20T08:54:56;94612.50;;;1.75;100.00
12785;BME280;6456;42.680;23.260;2023-12-20T08:57:23;94606.84;;;1.87;100.00
12785;BME280;6456;42.680;23.260;2023-12-20T08:59:52;94613.50;;;2.14;100.00
12785;BME280;6456;42.680;23.260;2023-12-20T09:02:19;94622.28;;;2.29;100.00
12785;BME280;6456;42.680;23.260;2023-12-20T09:04:46;94605.06;;;2.44;100.00
12785;BME280;6456;42.680;23.260;2023-12-20T09:07:22;94550.56;;;2.20;100.00
12785;BME280;6456;42.680;23.260;2023-12-20T09:09:49;94528.31;;;2.26;100.00
12785;BME280;6456;42.680;23.260;2023-12-20T09:12:17;94522.31;;;2.41;100.00
12785;BME280;6456;42.680;23.260;2023-12-20T09:14:45;94555.69;;;2.69;100.00
12785;BME280;6456;42.680;23.260;2023-12-20T09:17:13;94551.59;;;2.82;100.00
12785;BME280;6456;42.680;23.260;2023-12-20T09:19:41;94548.16;;;2.90;100.00
12785;BME280;6456;42.680;23.260;2023-12-20T09:22:11;94538.41;;;2.92;100.00
12785;BME280;6456;42.680;23.260;2023-12-20T09:24:38;94532.88;;;2.95;100.00
12785;BME280;6456;42.680;23.260;2023-12-20T09:27:05;94456.41;;;2.42;100.00
12785;BME280;6456;42.680;23.260;2023-12-20T09:29:33;94523.28;;;2.95;100.00
12785;BME280;6456;42.680;23.260;2023-12-20T09:32:00;94545.47;;;3.14;100.00
12785;BME280;6456;42.680;23.260;2023-12-20T09:34:28;94511.22;;;3.10;100.00
12785;BME280;6456;42.680;23.260;2023-12-20T09:36:55;94492.41;;;3.00;100.00
12785;BME280;6456;42.680;23.260;2023-12-20T09:39:22;94439.41;;;2.71;100.00
12785;BME280;6456;42.680;23.260;2023-12-20T09:41:56;94516.28;;;3.35;100.00
12785;BME280;6456;42.680;23.260;2023-12-20T09:44:26;94473.16;;;3.17;100.00
12785;BME280;6456;42.680;23.260;2023-12-20T09:46:55;94444.09;;;3.06;100.00
12785;BME280;6456;42.680;23.260;2023-12-20T09:49:22;94487.84;;;3.33;100.00
12785;BME280;6456;42.680;23.260;2023-12-20T09:51:51;94426.63;;;3.00;100.00
12785;BME280;6456;42.680;23.260;2023-12-20T09:54:19;94421.16;;;3.17;100.00
12785;BME280;6456;42.680;23.260;2023-12-20T09:56:47;94440.03;;;3.34;100.00
12785;BME280;6456;42.680;23.260;2023-12-20T09:59:15;94392.50;;;3.03;100.00
12785;BME280;6456;42.680;23.260;2023-12-20T10:01:43;94411.91;;;3.15;100.00
12785;BME280;6456;42.680;23.260;2023-12-20T10:04:11;94444.91;;;3.37;100.00
12785;BME280;6456;42.680;23.260;2023-12-20T10:06:39;94458.72;;;3.38;100.00
12785;BME280;6456;42.680;23.260;2023-12-20T10:09:08;94432.66;;;3.23;100.00
12785;BME280;6456;42.680;23.260;2023-12-20T10:11:35;94434.06;;;3.48;100.00
12785;BME280;6456;42.680;23.260;2023-12-20T10:14:04;94364.19;;;3.08;100.00
12785;BME280;6456;42.680;23.260;2023-12-20T10:16:31;94469.16;;;3.98;100.00
12785;BME280;6456;42.680;23.260;2023-12-20T10:18:59;94441.47;;;3.82;100.00
12785;BME280;6456;42.680;23.260;2023-12-20T10:21:27;94462.31;;;3.97;100.00
12785;BME280;6456;42.680;23.260;2023-12-20T10:23:54;94457.13;;;3.97;100.00
12785;BME280;6456;42.680;23.260;2023-12-20T10:26:24;94436.44;;;3.80;100.00
12785;BME280;6456;42.680;23.260;2023-12-20T10:28:52;94376.41;;;3.45;100.00
12785;BME280;6456;42.680;23.260;2023-12-20T10:31:27;94431.91;;;3.97;100.00
12785;BME280;6456;42.680;23.260;2023-12-20T10:33:58;94355.09;;;3.64;100.00
12785;BME280;6456;42.680;23.260;2023-12-20T10:36:26;94371.38;;;3.80;100.00
12785;BME280;6456;42.680;23.260;2023-12-20T10:38:54;94348.84;;;3.73;100.00
12785;BME280;6456;42.680;23.260;2023-12-20T10:41:25;94400.66;;;3.97;100.00
12785;BME280;6456;42.680;23.260;2023-12-20T10:43:55;94306.50;;;3.27;100.00
12785;BME280;6456;42.680;23.260;2023-12-20T10:46:23;94428.53;;;3.88;100.00
12785;BME280;6456;42.680;23.260;2023-12-20T10:48:53;94356.25;;;3.61;100.00
12785;BME280;6456;42.680;23.260;2023-12-20T10:51:21;94386.84;;;3.97;100.00
12785;BME280;6456;42.680;23.260;2023-12-20T10:53:48;94371.94;;;3.91;100.00
12785;BME280;6456;42.680;23.260;2023-12-20T10:56:16;94309.22;;;3.48;100.00
12785;BME280;6456;42.680;23.260;2023-12-20T10:58:45;94377.88;;;4.14;100.00
12785;BME280;6456;42.680;23.260;2023-12-20T11:01:14;94354.16;;;4.09;100.00
12785;BME280;6456;42.680;23.260;2023-12-20T11:03:44;94361.81;;;4.25;100.00
12785;BME280;6456;42.680;23.260;2023-12-20T11:06:33;94309.00;;;3.87;100.00
12785;BME280;6456;42.680;23.260;2023-12-20T11:09:10;94378.84;;;4.42;100.00
12785;BME280;6456;42.680;23.260;2023-12-20T11:11:51;94365.31;;;4.32;100.00
12785;BME280;6456;42.680;23.260;2023-12-20T11:14:25;94235.88;;;3.67;100.00
12785;BME280;6456;42.680;23.260;2023-12-20T11:17:05;94279.19;;;4.04;100.00
12785;BME280;6456;42.680;23.260;2023-12-20T11:19:36;94336.28;;;4.49;100.00
12785;BME280;6456;42.680;23.260;2023-12-20T11:22:04;94322.16;;;4.44;100.00
12785;BME280;6456;42.680;23.260;2023-12-20T11:24:31;94343.88;;;4.66;100.00
12785;BME280;6456;42.680;23.260;2023-12-20T11:27:00;94299.72;;;4.43;100.00
12785;BME280;6456;42.680;23.260;2023-12-20T11:29:34;94299.63;;;4.36;100.00
12785;BME280;6456;42.680;23.260;2023-12-20T11:32:03;94195.66;;;3.84;100.00
12785;BME280;6456;42.680;23.260;2023-12-20T11:34:33;94313.13;;;4.61;100.00
12785;BME280;6456;42.680;23.260;2023-12-20T11:37:03;94312.41;;;4.67;100.00
12785;BME280;6456;42.680;23.260;2023-12-20T11:39:31;94237.47;;;4.33;100.00
12785;BME280;6456;42.680;23.260;2023-12-20T11:42:04;94226.38;;;4.25;100.00
12785;BME280;6456;42.680;23.260;2023-12-20T11:44:36;94281.63;;;4.56;100.00
12785;BME280;6456;42.680;23.260;2023-12-20T11:47:04;94274.56;;;4.50;100.00
12785;BME280;6456;42.680;23.260;2023-12-20T11:49:31;94206.94;;;4.21;100.00
12785;BME280;6456;42.680;23.260;2023-12-20T11:51:59;94279.34;;;4.89;100.00
12785;BME280;6456;42.680;23.260;2023-12-20T11:54:26;94245.13;;;4.71;100.00
12785;BME280;6456;42.680;23.260;2023-12-20T11:56:53;94259.94;;;4.91;100.00
12785;BME280;6456;42.680;23.260;2023-12-20T11:59:20;94260.66;;;5.06;100.00
12785;BME280;6456;42.680;23.260;2023-12-20T12:01:51;94241.31;;;4.94;100.00
12785;BME280;6456;42.680;23.260;2023-12-20T12:04:18;94254.72;;;5.12;100.00
12785;BME280;6456;42.680;23.260;2023-12-20T12:06:46;94227.34;;;5.02;100.00
12785;BME280;6456;42.680;23.260;2023-12-20T12:09:13;94227.56;;;5.07;100.00
12785;BME280;6456;42.680;23.260;2023-12-20T12:11:41;94235.13;;;5.23;100.00
12785;BME280;6456;42.680;23.260;2023-12-20T12:14:10;94231.72;;;5.23;100.00
12785;BME280;6456;42.680;23.260;2023-12-20T12:16:38;94199.34;;;5.10;100.00
12785;BME280;6456;42.680;23.260;2023-12-20T12:19:06;94158.09;;;4.93;100.00
12785;BME280;6456;42.680;23.260;2023-12-20T12:21:59;94225.59;;;5.37;100.00
12785;BME280;6456;42.680;23.260;2023-12-20T12:24:38;94177.69;;;5.16;100.00
12785;BME280;6456;42.680;23.260;2023-12-20T12:27:06;94182.53;;;5.19;100.00
12785;BME280;6456;42.680;23.260;2023-12-20T12:29:33;94221.63;;;5.41;100.00
12785;BME280;6456;42.680;23.260;2023-12-20T12:32:01;94160.34;;;5.02;100.00
12785;BME280;6456;42.680;23.260;2023-12-20T12:34:36;94211.69;;;5.30;100.00
12785;BME280;6456;42.680;23.260;2023-12-20T12:37:03;94228.44;;;5.42;100.00
12785;BME280;6456;42.680;23.260;2023-12-20T12:39:31;94127.28;;;4.75;100.00
12785;BME280;6456;42.680;23.260;2023-12-20T12:42:03;94196.19;;;5.22;100.00
12785;BME280;6456;42.680;23.260;2023-12-20T12:44:30;94115.59;;;4.71;100.00
12785;BME280;6456;42.680;23.260;2023-12-20T12:46:57;94194.25;;;5.30;100.00
12785;BME280;6456;42.680;23.260;2023-12-20T12:49:30;94158.97;;;5.06;100.00
12785;BME280;6456;42.680;23.260;2023-12-20T12:51:58;94211.69;;;5.30;100.00
12785;BME280;6456;42.680;23.260;2023-12-20T12:54:25;94191.41;;;5.25;100.00
12785;BME280;6456;42.680;23.260;2023-12-20T12:56:53;94159.59;;;5.08;100.00
12785;BME280;6456;42.680;23.260;2023-12-20T12:59:20;94195.13;;;5.44;100.00
12785;BME280;6456;42.680;23.260;2023-12-20T13:01:47;94126.59;;;4.94;100.00
12785;BME280;6456;42.680;23.260;2023-12-20T13:04:14;94178.16;;;5.27;100.00
12785;BME280;6456;42.680;23.260;2023-12-20T13:06:41;94143.16;;;5.08;100.00